createdAt,value
2016-11-21T00:00:32.617Z,7.8
2016-11-21T00:01:46.356Z,7.84
2016-11-21T00:03:00.064Z,7.74
2016-11-21T00:04:13.789Z,7.8
2016-11-21T00:05:27.517Z,7.82
2016-11-21T00:06:41.290Z,7.77
2016-11-21T00:07:56.053Z,7.79
2016-11-21T00:09:12.197Z,7.72
2016-11-21T00:10:27.469Z,7.72
2016-11-21T00:11:41.293Z,7.79
2016-11-21T00:12:55.081Z,7.77
2016-11-21T00:14:09.119Z,7.76
2016-11-21T00:15:22.834Z,7.8
2016-11-21T00:16:36.543Z,7.82
2016-11-21T00:17:50.253Z,7.82
2016-11-21T00:19:02.699Z,7.84
2016-11-21T00:20:15.122Z,7.85
2016-11-21T00:21:28.821Z,7.94
2016-11-21T00:22:42.529Z,7.88
2016-11-21T00:23:56.269Z,7.91
2016-11-21T00:25:10.001Z,7.87
2016-11-21T00:26:23.911Z,7.8
2016-11-21T00:27:37.669Z,7.87
2016-11-21T00:28:51.418Z,7.84
2016-11-21T00:30:05.116Z,7.8
2016-11-21T00:31:18.798Z,7.73
2016-11-21T00:32:31.462Z,7.74
2016-11-21T00:33:45.171Z,7.76
2016-11-21T00:34:58.870Z,7.67
2016-11-21T00:36:12.572Z,7.67
2016-11-21T00:37:26.418Z,7.82
2016-11-21T00:38:40.141Z,7.73
2016-11-21T00:39:53.887Z,7.7
2016-11-21T00:41:07.583Z,7.73
2016-11-21T00:42:21.295Z,7.77
2016-11-21T00:43:34.995Z,7.76
2016-11-21T00:44:47.435Z,7.7
2016-11-21T00:46:01.350Z,7.74
2016-11-21T00:47:15.049Z,7.76
2016-11-21T00:48:28.782Z,7.72
2016-11-21T00:49:42.479Z,7.72
2016-11-21T00:50:56.179Z,7.64
2016-11-21T00:52:09.923Z,7.7
2016-11-21T00:53:23.670Z,7.74
2016-11-21T00:54:37.382Z,7.69
2016-11-21T00:55:48.506Z,7.72
2016-11-21T00:57:02.204Z,7.73
2016-11-21T00:58:15.938Z,7.69
2016-11-21T00:59:29.642Z,7.67
2016-11-21T01:00:43.565Z,7.72
2016-11-21T01:01:57.335Z,7.64
2016-11-21T01:03:11.029Z,7.74
2016-11-21T01:04:24.757Z,7.73
2016-11-21T01:05:38.478Z,7.74
2016-11-21T01:06:52.202Z,7.73
2016-11-21T01:08:06.028Z,7.7
2016-11-21T01:09:19.818Z,7.62
2016-11-21T01:10:33.531Z,7.62
2016-11-21T01:11:47.269Z,7.61
2016-11-21T01:13:01.007Z,7.61
2016-11-21T01:14:14.707Z,7.56
2016-11-21T01:15:28.406Z,7.54
2016-11-21T01:16:42.119Z,7.51
2016-11-21T01:17:55.814Z,7.51
2016-11-21T01:19:08.215Z,7.48
2016-11-21T01:20:20.887Z,7.37
2016-11-21T01:21:33.274Z,7.44
2016-11-21T01:22:46.983Z,7.39
2016-11-21T01:24:00.687Z,7.36
2016-11-21T01:25:14.384Z,7.34
2016-11-21T01:26:28.119Z,7.36
2016-11-21T01:27:41.825Z,7.28
2016-11-21T01:28:55.540Z,7.26
2016-11-21T01:30:09.232Z,7.24
2016-11-21T01:31:22.933Z,7.24
2016-11-21T01:32:36.648Z,7.21
2016-11-21T01:33:50.392Z,7.21
2016-11-21T01:35:04.158Z,7.24
2016-11-21T01:36:16.598Z,7.22
2016-11-21T01:37:30.309Z,7.2
2016-11-21T01:38:44.006Z,7.2
2016-11-21T01:39:57.710Z,7.17
2016-11-21T01:41:10.352Z,7.11
2016-11-21T01:42:24.039Z,7.15
2016-11-21T01:43:37.733Z,7.14
2016-11-21T01:44:51.424Z,7.21
2016-11-21T01:46:05.112Z,7.08
2016-11-21T01:47:18.895Z,7.11
2016-11-21T01:48:32.828Z,7.13
2016-11-21T01:49:46.517Z,7.14
2016-11-21T01:51:00.219Z,6.99
2016-11-21T01:52:13.949Z,7.13
2016-11-21T01:53:27.639Z,7.08
2016-11-21T01:54:41.335Z,7.03
2016-11-21T01:55:55.042Z,7
2016-11-21T01:57:08.733Z,7
2016-11-21T01:58:22.461Z,7.02
2016-11-21T01:59:36.179Z,6.97
2016-11-21T02:00:49.913Z,7.02
2016-11-21T02:02:03.612Z,7.02
2016-11-21T02:03:17.302Z,7
2016-11-21T02:04:29.720Z,7
2016-11-21T02:05:43.442Z,6.97
2016-11-21T02:06:57.135Z,6.96
2016-11-21T02:08:10.837Z,6.97
2016-11-21T02:09:24.555Z,7.02
2016-11-21T02:10:38.252Z,6.96
2016-11-21T02:11:51.959Z,7.05
2016-11-21T02:13:05.684Z,7.05
2016-11-21T02:14:19.395Z,7.05
2016-11-21T02:15:33.083Z,7
2016-11-21T02:16:46.801Z,6.95
2016-11-21T02:18:00.478Z,7.02
2016-11-21T02:19:14.207Z,7
2016-11-21T02:20:28.130Z,7.06
2016-11-21T02:21:40.561Z,7.13
2016-11-21T02:22:54.483Z,7.13
2016-11-21T02:24:08.182Z,7.14
2016-11-21T02:25:21.889Z,6.99
2016-11-21T02:26:35.583Z,7
2016-11-21T02:27:49.311Z,7
2016-11-21T02:29:03.014Z,6.97
2016-11-21T02:30:16.739Z,6.93
2016-11-21T02:31:30.440Z,6.9
2016-11-21T02:32:44.132Z,6.96
2016-11-21T02:33:57.848Z,6.89
2016-11-21T02:35:11.788Z,6.93
2016-11-21T02:36:25.505Z,6.93
2016-11-21T02:37:37.924Z,6.9
2016-11-21T02:38:50.363Z,6.87
2016-11-21T02:40:04.066Z,6.82
2016-11-21T02:41:17.785Z,6.78
2016-11-21T02:42:31.492Z,6.74
2016-11-21T02:43:45.192Z,6.78
2016-11-21T02:44:57.613Z,6.77
2016-11-21T02:46:11.330Z,6.81
2016-11-21T02:47:25.072Z,6.78
2016-11-21T02:48:38.771Z,6.79
2016-11-21T02:49:52.468Z,6.84
2016-11-21T02:51:06.168Z,6.81
2016-11-21T02:52:18.569Z,6.79
2016-11-21T02:53:32.246Z,6.82
2016-11-21T02:54:45.931Z,6.85
2016-11-21T02:55:58.414Z,6.89
2016-11-21T02:57:12.098Z,6.93
2016-11-21T02:58:25.891Z,6.85
2016-11-21T02:59:39.616Z,6.82
2016-11-21T03:00:53.306Z,6.78
2016-11-21T03:02:07.023Z,6.66
2016-11-21T03:03:20.709Z,6.59
2016-11-21T03:04:34.405Z,6.63
2016-11-21T03:05:48.264Z,6.56
2016-11-21T03:07:01.968Z,6.66
2016-11-21T03:08:15.677Z,6.63
2016-11-21T03:09:29.395Z,6.54
2016-11-21T03:10:43.093Z,6.64
2016-11-21T03:11:56.816Z,6.59
2016-11-21T03:13:10.543Z,6.63
2016-11-21T03:14:24.245Z,6.6
2016-11-21T03:15:37.938Z,6.66
2016-11-21T03:16:50.452Z,6.56
2016-11-21T03:18:04.151Z,6.57
2016-11-21T03:19:17.854Z,6.64
2016-11-21T03:20:30.258Z,6.6
2016-11-21T03:21:43.996Z,6.59
2016-11-21T03:22:57.676Z,6.62
2016-11-21T03:24:11.681Z,6.52
2016-11-21T03:25:25.391Z,6.53
2016-11-21T03:26:39.086Z,6.54
2016-11-21T03:27:52.780Z,6.54
2016-11-21T03:29:06.491Z,6.62
2016-11-21T03:30:20.390Z,6.45
2016-11-21T03:31:34.167Z,6.59
2016-11-21T03:32:47.867Z,6.53
2016-11-21T03:34:01.566Z,6.48
2016-11-21T03:35:15.288Z,6.49
2016-11-21T03:36:28.995Z,6.49
2016-11-21T03:37:42.687Z,6.46
2016-11-21T03:38:56.368Z,6.53
2016-11-21T03:40:10.069Z,6.48
2016-11-21T03:41:22.476Z,6.44
2016-11-21T03:42:36.526Z,6.42
2016-11-21T03:43:50.241Z,6.42
2016-11-21T03:45:03.935Z,6.38
2016-11-21T03:46:17.896Z,6.41
2016-11-21T03:47:31.595Z,6.38
2016-11-21T03:48:42.716Z,6.3
2016-11-21T03:49:56.501Z,6.39
2016-11-21T03:51:10.189Z,6.31
2016-11-21T03:52:22.633Z,6.3
2016-11-21T03:53:36.620Z,6.28
2016-11-21T03:54:50.323Z,6.36
2016-11-21T03:56:04.025Z,6.28
2016-11-21T03:57:16.479Z,6.35
2016-11-21T03:58:30.321Z,6.27
2016-11-21T03:59:44.019Z,6.27
2016-11-21T04:00:57.750Z,6.26
2016-11-21T04:02:11.477Z,6.26
2016-11-21T04:03:25.216Z,6.23
2016-11-21T04:04:38.917Z,6.23
2016-11-21T04:05:52.605Z,6.17
2016-11-21T04:07:06.306Z,6.19
2016-11-21T04:08:18.733Z,6.17
2016-11-21T04:09:32.475Z,6.16
2016-11-21T04:10:46.168Z,6.17
2016-11-21T04:11:59.875Z,6.14
2016-11-21T04:13:13.601Z,6.06
2016-11-21T04:14:27.297Z,6.05
2016-11-21T04:15:41.001Z,6.06
2016-11-21T04:16:54.735Z,5.9
2016-11-21T04:18:08.441Z,5.86
2016-11-21T04:19:22.185Z,5.93
2016-11-21T04:20:35.970Z,5.84
2016-11-21T04:21:49.730Z,5.77
2016-11-21T04:23:03.416Z,5.9
2016-11-21T04:24:17.121Z,5.83
2016-11-21T04:25:30.812Z,5.75
2016-11-21T04:26:44.519Z,5.8
2016-11-21T04:27:58.247Z,5.69
2016-11-21T04:29:10.657Z,5.67
2016-11-21T04:30:24.343Z,5.67
2016-11-21T04:31:38.069Z,5.59
2016-11-21T04:32:51.979Z,5.58
2016-11-21T04:34:05.703Z,5.53
2016-11-21T04:35:19.399Z,5.59
2016-11-21T04:36:33.121Z,5.54
2016-11-21T04:37:46.865Z,5.49
2016-11-21T04:39:00.569Z,5.46
2016-11-21T04:40:14.264Z,5.44
2016-11-21T04:41:27.948Z,5.43
2016-11-21T04:42:41.692Z,5.36
2016-11-21T04:43:55.431Z,5.38
2016-11-21T04:45:09.186Z,5.46
2016-11-21T04:46:22.920Z,5.41
2016-11-21T04:47:36.688Z,5.46
2016-11-21T04:48:50.388Z,5.32
2016-11-21T04:50:04.111Z,5.31
2016-11-21T04:51:17.842Z,5.18
2016-11-21T04:52:31.540Z,5.32
2016-11-21T04:53:43.954Z,5.25
2016-11-21T04:54:57.690Z,5.31
2016-11-21T04:56:11.630Z,5.16
2016-11-21T04:57:25.320Z,5.18
2016-11-21T04:58:39.035Z,5.22
2016-11-21T04:59:52.752Z,5.22
2016-11-21T05:01:06.682Z,5.18
2016-11-21T05:02:20.407Z,5.13
2016-11-21T05:03:34.143Z,5.13
2016-11-21T05:04:47.845Z,5.07
2016-11-21T05:06:01.544Z,5.06
2016-11-21T05:07:15.292Z,5.04
2016-11-21T05:08:28.981Z,5.07
2016-11-21T05:09:42.699Z,4.99
2016-11-21T05:10:56.423Z,5
2016-11-21T05:12:10.132Z,5.06
2016-11-21T05:13:23.830Z,5
2016-11-21T05:14:36.264Z,5.07
2016-11-21T05:15:49.954Z,5.07
2016-11-21T05:17:03.684Z,5
2016-11-21T05:18:17.375Z,5.07
2016-11-21T05:19:31.073Z,4.99
2016-11-21T05:20:44.776Z,5.07
2016-11-21T05:21:58.473Z,4.99
2016-11-21T05:23:12.167Z,4.95
2016-11-21T05:24:25.879Z,5.04
2016-11-21T05:25:39.582Z,4.99
2016-11-21T05:26:53.278Z,4.96
2016-11-21T05:28:06.973Z,4.96
2016-11-21T05:29:20.668Z,5.06
2016-11-21T05:30:34.551Z,5.06
2016-11-21T05:31:48.273Z,4.99
2016-11-21T05:33:01.972Z,5.03
2016-11-21T05:34:15.677Z,5.08
2016-11-21T05:35:29.378Z,5.04
2016-11-21T05:36:43.065Z,5.1
2016-11-21T05:37:56.779Z,5.13
2016-11-21T05:39:10.461Z,5.21
2016-11-21T05:40:24.149Z,5.22
2016-11-21T05:41:37.858Z,5.22
2016-11-21T05:42:51.541Z,5.18
2016-11-21T05:44:05.290Z,5.16
2016-11-21T05:45:19.007Z,5.18
2016-11-21T05:46:32.695Z,5.16
2016-11-21T05:47:46.448Z,5.18
2016-11-21T05:49:00.171Z,5.17
2016-11-21T05:50:13.911Z,5.18
2016-11-21T05:51:27.624Z,5.18
2016-11-21T05:52:41.352Z,5.31
2016-11-21T05:53:55.041Z,5.22
2016-11-21T05:55:08.752Z,5.25
2016-11-21T05:56:22.446Z,5.28
2016-11-21T05:57:35.164Z,5.26
2016-11-21T05:58:48.855Z,5.26
2016-11-21T06:00:02.551Z,5.32
2016-11-21T06:01:16.253Z,5.22
2016-11-21T06:02:29.953Z,5.32
2016-11-21T06:03:43.700Z,5.25
2016-11-21T06:04:57.419Z,5.33
2016-11-21T06:06:11.131Z,5.31
2016-11-21T06:07:23.556Z,5.26
2016-11-21T06:08:37.265Z,5.28
2016-11-21T06:09:49.678Z,5.21
2016-11-21T06:11:00.808Z,5.32
2016-11-21T06:12:14.500Z,5.29
2016-11-21T06:13:28.221Z,5.29
2016-11-21T06:14:41.916Z,5.29
2016-11-21T06:15:55.614Z,5.29
2016-11-21T06:17:09.328Z,5.29
2016-11-21T06:18:23.055Z,5.36
2016-11-21T06:19:36.757Z,5.35
2016-11-21T06:20:50.476Z,5.33
2016-11-21T06:22:04.282Z,5.33
2016-11-21T06:23:18.022Z,5.4
2016-11-21T06:24:31.757Z,5.43
2016-11-21T06:25:45.450Z,5.41
2016-11-21T06:26:57.845Z,5.46
2016-11-21T06:28:11.576Z,5.41
2016-11-21T06:29:25.541Z,5.47
2016-11-21T06:30:39.265Z,5.38
2016-11-21T06:31:52.970Z,5.44
2016-11-21T06:33:06.672Z,5.5
2016-11-21T06:34:20.370Z,5.41
2016-11-21T06:35:34.074Z,5.44
2016-11-21T06:36:47.762Z,5.5
2016-11-21T06:38:01.469Z,5.44
2016-11-21T06:39:15.173Z,5.44
2016-11-21T06:40:28.866Z,5.44
2016-11-21T06:41:42.560Z,5.53
2016-11-21T06:42:56.285Z,5.5
2016-11-21T06:44:09.979Z,5.5
2016-11-21T06:45:23.904Z,5.51
2016-11-21T06:46:37.624Z,5.59
2016-11-21T06:47:51.322Z,5.51
2016-11-21T06:49:05.016Z,5.56
2016-11-21T06:50:18.736Z,5.53
2016-11-21T06:51:32.426Z,5.58
2016-11-21T06:52:46.141Z,5.56
2016-11-21T06:53:58.653Z,5.51
2016-11-21T06:55:12.433Z,5.5
2016-11-21T06:56:26.126Z,5.56
2016-11-21T06:57:40.077Z,5.53
2016-11-21T06:58:53.774Z,5.53
2016-11-21T07:00:07.601Z,5.61
2016-11-21T07:01:20.068Z,5.56
2016-11-21T07:02:33.789Z,5.58
2016-11-21T07:03:47.485Z,5.51
2016-11-21T07:05:01.220Z,5.53
2016-11-21T07:06:14.982Z,5.54
2016-11-21T07:07:28.689Z,5.61
2016-11-21T07:08:42.389Z,5.58
2016-11-21T07:09:56.088Z,5.58
2016-11-21T07:11:09.788Z,5.58
2016-11-21T07:12:23.489Z,5.51
2016-11-21T07:13:37.191Z,5.68
2016-11-21T07:14:50.900Z,5.65
2016-11-21T07:16:03.355Z,5.72
2016-11-21T07:17:15.765Z,5.69
2016-11-21T07:18:29.464Z,5.65
2016-11-21T07:19:43.182Z,5.72
2016-11-21T07:20:56.873Z,5.8
2016-11-21T07:22:10.558Z,5.8
2016-11-21T07:23:24.241Z,5.83
2016-11-21T07:24:37.934Z,5.79
2016-11-21T07:25:51.647Z,5.86
2016-11-21T07:27:05.362Z,5.8
2016-11-21T07:28:19.035Z,5.91
2016-11-21T07:29:32.753Z,5.86
2016-11-21T07:30:45.182Z,5.99
2016-11-21T07:31:57.642Z,5.96
2016-11-21T07:33:10.091Z,5.99
2016-11-21T07:34:23.821Z,6.02
2016-11-21T07:35:37.540Z,6.01
2016-11-21T07:36:51.249Z,6.03
2016-11-21T07:38:04.950Z,6.09
2016-11-21T07:39:18.640Z,6.06
2016-11-21T07:40:32.351Z,6.05
2016-11-21T07:41:46.032Z,6.11
2016-11-21T07:42:59.736Z,6.16
2016-11-21T07:44:13.451Z,6.16
2016-11-21T07:45:27.176Z,6.26
2016-11-21T07:46:40.897Z,6.3
2016-11-21T07:47:54.587Z,6.35
2016-11-21T07:49:07.016Z,6.34
2016-11-21T07:50:20.800Z,6.27
2016-11-21T07:51:34.508Z,6.3
2016-11-21T07:52:48.199Z,6.35
2016-11-21T07:54:01.893Z,6.36
2016-11-21T07:55:15.598Z,6.36
2016-11-21T07:56:29.335Z,6.3
2016-11-21T07:57:43.027Z,6.44
2016-11-21T07:58:56.756Z,6.41
2016-11-21T08:00:10.672Z,6.42
2016-11-21T08:01:24.391Z,6.52
2016-11-21T08:02:38.072Z,6.46
2016-11-21T08:03:51.773Z,6.46
2016-11-21T08:05:05.470Z,6.54
2016-11-21T08:06:19.170Z,6.66
2016-11-21T08:07:32.869Z,6.6
2016-11-21T08:08:46.583Z,6.66
2016-11-21T08:09:59.368Z,6.67
2016-11-21T08:11:13.093Z,6.77
2016-11-21T08:12:26.792Z,6.85
2016-11-21T08:13:40.539Z,6.75
2016-11-21T08:14:54.285Z,6.87
2016-11-21T08:16:07.972Z,6.93
2016-11-21T08:17:21.688Z,6.97
2016-11-21T08:18:35.386Z,6.97
2016-11-21T08:19:49.128Z,6.97
2016-11-21T08:21:02.875Z,6.95
2016-11-21T08:22:16.578Z,6.92
2016-11-21T08:23:30.282Z,6.97
2016-11-21T08:24:43.983Z,6.92
2016-11-21T08:25:57.693Z,6.96
2016-11-21T08:27:11.435Z,7.02
2016-11-21T08:28:25.124Z,6.97
2016-11-21T08:29:38.823Z,7
2016-11-21T08:30:52.533Z,6.99
2016-11-21T08:32:06.262Z,6.93
2016-11-21T08:33:20.181Z,7
2016-11-21T08:34:33.881Z,7
2016-11-21T08:35:47.568Z,7.03
2016-11-21T08:37:01.253Z,6.97
2016-11-21T08:38:14.969Z,7
2016-11-21T08:39:28.697Z,7.11
2016-11-21T08:40:42.455Z,7.02
2016-11-21T08:41:56.157Z,7.13
2016-11-21T08:43:09.894Z,7.33
2016-11-21T08:44:23.694Z,7.47
2016-11-21T08:45:37.404Z,7.64
2016-11-21T08:46:49.812Z,7.77
2016-11-21T08:48:03.547Z,7.92
2016-11-21T08:49:17.272Z,8.21
2016-11-21T08:50:30.984Z,8.49
2016-11-21T08:51:44.916Z,9.27
2016-11-21T08:52:58.621Z,10.17
2016-11-21T08:54:12.335Z,11.12
2016-11-21T08:55:26.060Z,12.16
2016-11-21T08:56:38.608Z,13.21
2016-11-21T08:57:52.294Z,14.11
2016-11-21T08:59:06.043Z,14.62
2016-11-21T09:00:19.753Z,14.7
2016-11-21T09:01:33.445Z,14.69
2016-11-21T09:02:47.132Z,14.59
2016-11-21T09:04:00.841Z,14.26
2016-11-21T09:05:13.238Z,13.92
2016-11-21T09:06:27.016Z,13.52
2016-11-21T09:07:40.741Z,13.3
2016-11-21T09:08:54.453Z,12.97
2016-11-21T09:10:06.896Z,12.44
2016-11-21T09:11:20.608Z,12.15
2016-11-21T09:12:34.323Z,12.13
2016-11-21T09:13:48.252Z,12.29
2016-11-21T09:15:01.992Z,12.27
2016-11-21T09:16:15.693Z,12.2
2016-11-21T09:17:29.423Z,12.37
2016-11-21T09:18:43.122Z,12.38
2016-11-21T09:19:56.924Z,12.37
2016-11-21T09:21:10.874Z,11.74
2016-11-21T09:22:24.592Z,11.28
2016-11-21T09:23:38.307Z,10.87
2016-11-21T09:24:52.006Z,10.48
2016-11-21T09:26:05.701Z,10.17
2016-11-21T09:27:19.451Z,9.99
2016-11-21T09:28:33.161Z,9.8
2016-11-21T09:29:46.859Z,9.71
2016-11-21T09:31:00.553Z,9.5
2016-11-21T09:32:14.272Z,9.52
2016-11-21T09:33:28.033Z,9.42
2016-11-21T09:34:40.468Z,9.47
2016-11-21T09:35:54.159Z,9.34
2016-11-21T09:37:07.869Z,9.53
2016-11-21T09:38:21.566Z,9.44
2016-11-21T09:39:35.297Z,9.48
2016-11-21T09:40:49.089Z,9.4
2016-11-21T09:42:02.825Z,9.58
2016-11-21T09:43:16.882Z,9.74
2016-11-21T09:44:30.801Z,10
2016-11-21T09:45:44.560Z,10.48
2016-11-21T09:46:58.284Z,10.69
2016-11-21T09:48:10.718Z,11.15
2016-11-21T09:49:24.431Z,12.11
2016-11-21T09:50:38.137Z,12.68
2016-11-21T09:51:51.871Z,13.54
2016-11-21T09:53:05.588Z,14.83
2016-11-21T09:54:19.297Z,16.31
2016-11-21T09:55:34.547Z,17.62
2016-11-21T09:56:48.567Z,18.55
2016-11-21T09:58:03.801Z,19.3
2016-11-21T09:59:19.044Z,20.35
2016-11-21T10:00:34.308Z,21.58
2016-11-21T10:01:49.637Z,22.52
2016-11-21T10:03:04.907Z,23.02
2016-11-21T10:04:20.141Z,23.42
2016-11-21T10:05:35.632Z,24.01
2016-11-21T10:06:52.166Z,24.29
2016-11-21T10:08:08.556Z,24.66
2016-11-21T10:09:23.902Z,24.6
2016-11-21T10:10:39.198Z,24.06
2016-11-21T10:11:54.565Z,23.6
2016-11-21T10:13:10.286Z,23.17
2016-11-21T10:14:25.522Z,22.63
2016-11-21T10:15:40.812Z,21.4
2016-11-21T10:16:54.556Z,19.89
2016-11-21T10:18:08.290Z,18.38
2016-11-21T10:19:21.998Z,17.27
2016-11-21T10:20:35.741Z,16.46
2016-11-21T10:21:49.526Z,15.76
2016-11-21T10:23:03.246Z,15.21
2016-11-21T10:24:16.974Z,14.96
2016-11-21T10:25:30.703Z,15.39
2016-11-21T10:26:44.414Z,16.27
2016-11-21T10:27:58.113Z,16.43
2016-11-21T10:29:11.855Z,16.49
2016-11-21T10:30:25.577Z,16.14
2016-11-21T10:32:41.076Z,15.38
2016-11-21T10:33:54.769Z,15.21
2016-11-21T10:35:08.494Z,14.91
2016-11-21T10:36:22.203Z,14.26
2016-11-21T10:37:35.919Z,13.73
2016-11-21T10:38:49.658Z,13.19
2016-11-21T10:40:03.360Z,12.97
2016-11-21T10:41:17.251Z,12.74
2016-11-21T10:42:30.958Z,12.48
2016-11-21T10:43:44.685Z,12.08
2016-11-21T10:44:58.391Z,11.52
2016-11-21T10:46:12.162Z,11.3
2016-11-21T10:47:25.895Z,10.9
2016-11-21T10:48:39.589Z,10.7
2016-11-21T10:49:53.339Z,10.55
2016-11-21T10:51:07.313Z,10.55
2016-11-21T10:52:21.019Z,10.7
2016-11-21T10:53:34.749Z,11.13
2016-11-21T10:54:48.466Z,12.27
2016-11-21T10:56:02.209Z,13.69
2016-11-21T10:57:15.970Z,15.25
2016-11-21T10:58:29.753Z,15.61
2016-11-21T10:59:43.455Z,16.46
2016-11-21T11:00:55.881Z,17.24
2016-11-21T11:02:09.588Z,17.86
2016-11-21T11:03:23.297Z,17.94
2016-11-21T11:04:37.157Z,18.69
2016-11-21T11:05:50.867Z,18.65
2016-11-21T11:07:04.602Z,18.2
2016-11-21T11:08:18.324Z,17.54
2016-11-21T11:09:30.957Z,16.47
2016-11-21T11:10:44.946Z,15.92
2016-11-21T11:11:57.433Z,15.58
2016-11-21T11:13:11.165Z,15.42
2016-11-21T11:14:24.857Z,15.21
2016-11-21T11:15:37.302Z,14.9
2016-11-21T11:16:50.130Z,14.74
2016-11-21T11:18:03.851Z,14.4
2016-11-21T11:19:17.605Z,14.14
2016-11-21T11:20:31.325Z,13.88
2016-11-21T11:21:45.022Z,13.67
2016-11-21T11:22:58.792Z,13.56
2016-11-21T11:24:12.483Z,13.56
2016-11-21T11:25:26.444Z,13.96
2016-11-21T11:26:40.183Z,14.37
2016-11-21T11:27:53.915Z,14.47
2016-11-21T11:29:07.617Z,14.65
2016-11-21T11:30:21.333Z,15.08
2016-11-21T11:31:35.045Z,15.23
2016-11-21T11:32:48.778Z,15.08
2016-11-21T11:34:02.747Z,14.83
2016-11-21T11:35:16.447Z,14.72
2016-11-21T11:36:30.168Z,14.4
2016-11-21T11:37:43.944Z,14.24
2016-11-21T11:38:57.696Z,14.13
2016-11-21T11:40:11.516Z,14.14
2016-11-21T11:41:23.975Z,13.99
2016-11-21T11:42:37.683Z,13.86
2016-11-21T11:43:50.133Z,13.79
2016-11-21T11:45:03.837Z,13.64
2016-11-21T11:46:17.553Z,13.44
2016-11-21T11:47:31.252Z,13.41
2016-11-21T11:48:45.022Z,13.63
2016-11-21T11:49:57.458Z,14.65
2016-11-21T11:51:11.206Z,15.27
2016-11-21T11:52:24.952Z,15.99
2016-11-21T11:53:38.776Z,16.53
2016-11-21T11:54:51.183Z,16.91
2016-11-21T11:56:04.929Z,17.36
2016-11-21T11:57:18.663Z,17.83
2016-11-21T11:58:32.391Z,17.42
2016-11-21T11:59:46.170Z,17.32
2016-11-21T12:00:59.883Z,17.02
2016-11-21T12:02:13.640Z,16.59
2016-11-21T12:03:27.357Z,15.92
2016-11-21T12:04:39.783Z,15.42
2016-11-21T12:05:53.548Z,15.05
2016-11-21T12:07:06.005Z,14.99
2016-11-21T12:08:19.740Z,15.33
2016-11-21T12:09:33.620Z,16.06
2016-11-21T12:10:44.808Z,16.75
2016-11-21T12:11:58.785Z,17.42
2016-11-21T12:13:12.505Z,18
2016-11-21T12:14:26.449Z,18.34
2016-11-21T12:15:40.155Z,18.69
2016-11-21T12:16:54.124Z,18.6
2016-11-21T12:18:07.908Z,18.42
2016-11-21T12:19:21.633Z,18.12
2016-11-21T12:20:35.345Z,17.38
2016-11-21T12:21:49.071Z,16.64
2016-11-21T12:23:02.787Z,15.84
2016-11-21T12:24:16.513Z,15.29
2016-11-21T12:25:30.210Z,14.99
2016-11-21T12:26:43.916Z,14.7
2016-11-21T12:27:57.647Z,14.32
2016-11-21T12:29:11.356Z,14.07
2016-11-21T12:30:25.061Z,14.04
2016-11-21T12:31:37.518Z,13.84
2016-11-21T12:32:51.298Z,13.81
2016-11-21T12:34:05.026Z,13.59
2016-11-21T12:35:18.751Z,13.52
2016-11-21T12:36:32.505Z,13.33
2016-11-21T12:37:46.220Z,13.15
2016-11-21T12:38:58.666Z,13.11
2016-11-21T12:40:12.386Z,13.06
2016-11-21T12:41:26.133Z,13.13
2016-11-21T12:42:39.842Z,13.09
2016-11-21T12:43:53.617Z,13.03
2016-11-21T12:45:07.538Z,13.01
2016-11-21T12:46:19.968Z,13.01
2016-11-21T12:47:33.736Z,12.81
2016-11-21T12:48:47.471Z,12.74
2016-11-21T12:50:01.219Z,12.63
2016-11-21T12:51:14.969Z,12.56
2016-11-21T12:52:28.680Z,12.48
2016-11-21T12:53:42.428Z,12.17
2016-11-21T12:54:56.151Z,12.02
2016-11-21T12:56:08.582Z,11.91
2016-11-21T12:57:22.386Z,11.69
2016-11-21T12:58:36.396Z,11.61
2016-11-21T13:00:02.858Z,11.46
2016-11-21T13:01:16.668Z,11.45
2016-11-21T13:02:30.371Z,11.39
2016-11-21T13:03:44.092Z,11.39
2016-11-21T13:04:57.878Z,11.45
2016-11-21T13:06:11.676Z,11.42
2016-11-21T13:07:26.659Z,11.38
2016-11-21T13:08:43.402Z,11.3
2016-11-21T13:09:57.227Z,11.35
2016-11-21T13:12:15.541Z,11.33
2016-11-21T13:14:46.620Z,11.31
2016-11-21T13:16:00.962Z,11.23
2016-11-21T13:18:10.918Z,11.13
2016-11-21T13:19:50.168Z,10.91
2016-11-21T13:22:13.078Z,10.85
2016-11-21T13:26:22.165Z,10.7
2016-11-21T13:28:15.981Z,10.61
2016-11-21T13:29:28.630Z,10.58
2016-11-21T13:31:13.253Z,10.55
2016-11-21T13:33:10.580Z,10.54
2016-11-21T13:35:21.356Z,10.37
2016-11-21T13:36:51.542Z,10.4
2016-11-21T13:39:02.115Z,10.47
2016-11-21T13:40:35.238Z,10.48
2016-11-21T13:42:45.417Z,10.57
2016-11-21T13:44:11.650Z,10.52
2016-11-21T13:46:21.825Z,10.45
2016-11-21T13:47:35.613Z,10.39
2016-11-21T13:48:49.333Z,10.27
2016-11-21T13:50:01.756Z,10.24
2016-11-21T13:51:15.490Z,10.13
2016-11-21T13:52:29.225Z,10.11
2016-11-21T13:53:43.083Z,10
2016-11-21T13:54:56.828Z,10.05
2016-11-21T13:56:09.279Z,9.95
2016-11-21T13:57:23.008Z,10.03
2016-11-21T13:58:36.745Z,10.02
2016-11-21T13:59:50.467Z,9.91
2016-11-21T14:01:04.217Z,9.98
2016-11-21T14:02:17.918Z,9.89
2016-11-21T14:03:31.678Z,9.88
2016-11-21T14:04:45.385Z,9.85
2016-11-21T14:05:59.099Z,9.81
2016-11-21T14:07:12.805Z,9.81
2016-11-21T14:08:26.537Z,9.75
2016-11-21T14:09:40.370Z,9.78
2016-11-21T14:10:54.115Z,9.77
2016-11-21T14:12:07.817Z,9.81
2016-11-21T14:13:21.570Z,9.66
2016-11-21T14:14:33.996Z,9.63
2016-11-21T14:15:47.848Z,9.71
2016-11-21T14:17:01.554Z,9.74
2016-11-21T14:18:15.254Z,9.74
2016-11-21T14:19:27.660Z,9.62
2016-11-21T14:20:41.411Z,9.6
2016-11-21T14:21:55.149Z,9.6
2016-11-21T14:23:08.943Z,9.5
2016-11-21T14:24:22.639Z,9.5
2016-11-21T14:25:36.530Z,9.48
2016-11-21T14:26:50.257Z,9.55
2016-11-21T14:28:03.960Z,9.4
2016-11-21T14:29:16.431Z,9.38
2016-11-21T14:30:30.145Z,9.44
2016-11-21T14:31:43.876Z,9.42
2016-11-21T14:32:57.561Z,9.34
2016-11-21T14:34:09.984Z,9.29
2016-11-21T14:35:23.726Z,9.29
2016-11-21T14:36:37.464Z,9.27
2016-11-21T14:37:51.260Z,9.16
2016-11-21T14:39:04.969Z,9.19
2016-11-21T14:40:18.664Z,9.09
2016-11-21T14:41:31.087Z,9.15
2016-11-21T14:42:44.788Z,9.11
2016-11-21T14:43:58.730Z,8.97
2016-11-21T14:45:12.491Z,9
2016-11-21T14:46:26.205Z,8.97
2016-11-21T14:47:39.956Z,9
2016-11-21T14:48:53.670Z,8.86
2016-11-21T14:50:07.626Z,8.82
2016-11-21T14:51:20.034Z,8.77
2016-11-21T14:52:33.989Z,8.71
2016-11-21T14:53:46.456Z,8.75
2016-11-21T14:55:00.168Z,8.68
2016-11-21T14:56:13.873Z,8.64
2016-11-21T14:57:27.813Z,8.64
2016-11-21T14:58:41.561Z,8.61
2016-11-21T14:59:55.486Z,8.58
2016-11-21T15:01:09.306Z,8.58
2016-11-21T15:02:21.741Z,8.52
2016-11-21T15:03:35.746Z,8.55
2016-11-21T15:04:49.460Z,8.53
2016-11-21T15:06:01.878Z,8.46
2016-11-21T15:07:14.371Z,8.61
2016-11-21T15:08:28.076Z,8.48
2016-11-21T15:09:41.773Z,8.46
2016-11-21T15:10:55.467Z,8.55
2016-11-21T15:12:09.175Z,8.53
2016-11-21T15:13:22.874Z,8.48
2016-11-21T15:14:36.592Z,8.52
2016-11-21T15:15:50.315Z,8.48
2016-11-21T15:17:04.078Z,8.46
2016-11-21T15:18:17.857Z,8.43
2016-11-21T15:19:31.571Z,8.5
2016-11-21T15:20:45.283Z,8.4
2016-11-21T15:21:58.989Z,8.46
2016-11-21T15:23:12.692Z,8.4
2016-11-21T15:24:26.631Z,8.42
2016-11-21T15:25:40.392Z,8.43
2016-11-21T15:26:54.233Z,8.32
2016-11-21T15:28:06.674Z,8.34
2016-11-21T15:29:20.412Z,8.42
2016-11-21T15:30:34.108Z,8.4
2016-11-21T15:31:47.876Z,8.42
2016-11-21T15:33:01.574Z,8.31
2016-11-21T15:34:14.001Z,8.4
2016-11-21T15:35:27.709Z,8.37
2016-11-21T15:36:41.407Z,8.35
2016-11-21T15:37:53.930Z,8.32
2016-11-21T15:39:07.628Z,8.31
2016-11-21T15:40:21.362Z,8.4
2016-11-21T15:41:35.101Z,8.42
2016-11-21T15:42:48.844Z,8.39
2016-11-21T15:44:02.540Z,8.4
2016-11-21T15:45:14.980Z,8.34
2016-11-21T15:46:27.423Z,8.39
2016-11-21T15:47:41.128Z,8.46
2016-11-21T15:48:54.835Z,8.34
2016-11-21T15:50:08.572Z,8.42
2016-11-21T15:51:21.062Z,8.39
2016-11-21T15:52:34.759Z,8.35
2016-11-21T15:53:48.451Z,8.43
2016-11-21T15:55:02.187Z,8.34
2016-11-21T15:56:15.949Z,8.42
2016-11-21T15:57:29.642Z,8.46
2016-11-21T15:58:43.380Z,8.49
2016-11-21T15:59:57.098Z,8.4
2016-11-21T16:01:10.871Z,8.46
2016-11-21T16:02:24.584Z,8.52
2016-11-21T16:03:38.363Z,8.55
2016-11-21T16:04:50.775Z,8.52
2016-11-21T16:06:04.482Z,8.53
2016-11-21T16:07:18.173Z,8.43
2016-11-21T16:08:31.894Z,8.58
2016-11-21T16:09:45.696Z,8.48
2016-11-21T16:10:59.444Z,8.46
2016-11-21T16:12:13.149Z,8.53
2016-11-21T16:13:27.162Z,8.49
2016-11-21T16:14:41.031Z,8.49
2016-11-21T16:15:54.730Z,8.52
2016-11-21T16:17:08.445Z,8.55
2016-11-21T16:18:22.149Z,8.5
2016-11-21T16:19:35.917Z,8.53
2016-11-21T16:20:49.656Z,8.55
2016-11-21T16:22:03.385Z,8.55
2016-11-21T16:23:17.148Z,8.45
2016-11-21T16:24:31.093Z,8.48
2016-11-21T16:25:43.703Z,8.43
2016-11-21T16:26:57.397Z,8.48
2016-11-21T16:28:11.137Z,8.5
2016-11-21T16:29:23.547Z,8.42
2016-11-21T16:30:37.269Z,8.5
2016-11-21T16:31:51.152Z,8.52